Flight Track Log - Related Links

Times and Time Zones

All times are in EDT time to prevent confusion due to time zone crossing. See the XOJ552 flight status page for this flight to view local times or setup timezone preferences in your user account.

Time Position Orientation Groundspeed Altitude Reporting Facility
EDT Latitude Longitude Course Direction KTS MPH feet Rate Location/Type
Mon 12:18:29 PM 26.7464 -79.9925 336° Northwest 265 305 7,800  Level Miami Center
Mon 12:19:30 PM 26.8186 -80.0317 334° Northwest 303 349 9,000 600 Climbing Miami Center
Mon 12:20:29 PM 26.8294 -80.1111 279° West 317 365 9,000 504 Level Miami Center
Mon 12:21:29 PM 26.8442 -80.2047 280° West 317 365 10,000 694 Climbing Miami Center
Mon 12:22:00 PM 26.9796 -80.3814 336° Northwest  Level FlightAware Approximate
Mon 12:22:30 PM 26.8728 -80.3194 286° West 335 386 10,400  Level Miami Center
Mon 12:23:00 PM 27.0976 -80.4405 336° Northwest  Level FlightAware Approximate
Mon 12:23:29 PM 26.9550 -80.3756 329° Northwest 328 377 13,400  Level Miami Center
Mon 12:24:29 PM 27.0306 -80.4456 320° Northwest 342 394 16,600 3,050 Climbing Miami Center
Mon 12:25:29 PM 27.0361 -80.5575 273° West 349 402 19,500 2,182 Climbing Miami Center
Mon 12:26:30 PM 27.0456 -80.6744 275° West 370 426 21,000 1,700 Climbing Miami Center
Mon 12:27:29 PM 27.0883 -80.7903 293° West 383 441 22,900 1,550 Climbing Miami Center
Mon 12:28:30 PM 27.1889 -80.8494 332° Northwest 378 435 24,100 1,900 Climbing Miami Center
Mon 12:29:29 PM 27.3006 -80.8883 343° North 377 434 26,700 2,370 Climbing Miami Center
Mon 12:30:29 PM 27.4167 -80.9231 345° North 405 466 28,800 1,950 Climbing Miami Center
Mon 12:31:29 PM 27.5261 -80.9667 341° North 420 483 30,600 1,700 Climbing Miami Center
Mon 12:32:29 PM 27.6439 -81.0061 343° North 425 489 32,200 1,488 Climbing Miami Center
Mon 12:33:30 PM 27.7658 -81.0503 342° North 437 503 33,600 1,587 Climbing Miami Center
Mon 12:34:30 PM 27.8958 -81.1019 341° North 449 517 35,400 1,650 Climbing Miami Center
Mon 12:35:30 PM 27.9908 -81.1361 342° North 449 517 36,900 1,664 Climbing Miami Center
Mon 12:36:29 PM 28.1208 -81.1811 343° North 449 517 38,700 1,613 Climbing Miami Center
Mon 12:37:29 PM 28.2558 -81.2006 353° North 443 510 40,100 1,150 Climbing Miami Center
Mon 12:38:29 PM 28.3703 -81.2167 353° North 452 520 41,000 593 Climbing Miami Center
Mon 12:39:00 PM 28.4439 -81.2306 351° North 452 520 41,000  Level Jacksonville Center
Mon 12:40:00 PM 28.5547 -81.2453 353° North 433 498 41,000  Level Jacksonville Center
Mon 12:41:00 PM 28.6781 -81.2644 352° North 433 498 41,000  Level Jacksonville Center
Mon 12:42:00 PM 28.8014 -81.2839 352° North 433 498 41,000  Level Jacksonville Center
Mon 12:43:00 PM 28.9269 -81.3008 353° North 448 516 41,000  Level Jacksonville Center
Mon 12:44:00 PM 29.0481 -81.3203 352° North 448 516 41,000  Level Jacksonville Center
Mon 12:45:00 PM 29.1694 -81.3372 353° North 443 510 41,000  Level Jacksonville Center
Mon 12:46:00 PM 29.2969 -81.3519 354° North 449 517 41,000  Level Jacksonville Center
Mon 12:47:00 PM 29.4203 -81.3714 352° North 449 517 41,000  Level Jacksonville Center
Mon 12:48:01 PM 29.5417 -81.3886 353° North 449 517 41,000  Level Jacksonville Center
Mon 12:49:00 PM 29.6669 -81.3986 356° North 449 517 41,000  Level Jacksonville Center
Mon 12:50:00 PM 29.7942 -81.3872 North 449 517 41,000  Level Jacksonville Center
Mon 12:51:01 PM 29.9192 -81.3781 North 443 510 41,000  Level Jacksonville Center
Mon 12:52:00 PM 30.0464 -81.3664 North 443 510 41,000  Level Jacksonville Center
Mon 12:53:00 PM 30.1717 -81.3572 North 443 510 41,000  Level Jacksonville Center
Mon 12:54:00 PM 30.3011 -81.3456 North 449 517 41,000  Level Jacksonville Center
Mon 12:55:00 PM 30.4261 -81.3339 North 449 517 41,000  Level Jacksonville Center
Mon 12:56:00 PM 30.5514 -81.3269 North 454 522 41,000  Level Jacksonville Center
Mon 12:57:00 PM 30.6786 -81.3200 North 454 522 41,000  Level Jacksonville Center
Mon 12:58:00 PM 30.8036 -81.3083 North 454 522 41,000  Level Jacksonville Center
Mon 12:59:00 PM 30.9308 -81.2989 North 454 522 41,000  Level Jacksonville Center
Mon 01:00:00 PM 31.0561 -81.2872 North 454 522 41,000  Level Jacksonville Center
Mon 01:01:00 PM 31.1811 -81.2803 North 449 517 41,000  Level Jacksonville Center
Mon 01:02:00 PM 31.3064 -81.2708 North 449 517 41,000 400 Level Jacksonville Center
Mon 01:03:00 PM 31.4378 -81.2561 North 439 505 41,800 843 Climbing Jacksonville Center
Mon 01:04:01 PM 31.5503 -81.2494 North 439 505 42,700 900 Climbing Jacksonville Center
Mon 01:05:00 PM 31.6858 -81.2372 North 444 511 43,600 756 Climbing Jacksonville Center
Mon 01:06:00 PM 31.7964 -81.2281 North 439 505 44,200 550 Climbing Jacksonville Center
Mon 01:07:00 PM 31.9319 -81.2181 North 439 505 44,700 400 Climbing Jacksonville Center
Mon 01:08:00 PM 32.0528 -81.1864 13° North 448 516 45,000 149 Climbing Jacksonville Center
Mon 01:09:01 PM 32.1753 -81.1475 15° North 456 525 45,000  Level Jacksonville Center
Mon 01:10:00 PM 32.3000 -81.1083 15° North 455 524 45,000  Level Jacksonville Center
Mon 01:11:00 PM 32.4144 -81.0764 13° North 456 525 45,000  Level Jacksonville Center
Mon 01:12:00 PM 32.5475 -81.0344 15° North 451 519 45,000  Level Jacksonville Center
Mon 01:13:00 PM 32.6569 -80.9606 30° Northeast 445 512 45,000  Level Jacksonville Center
Mon 01:14:00 PM 32.7408 -80.8428 50° Northeast 446 513 45,000  Level Jacksonville Center
Mon 01:15:00 PM 32.8328 -80.7367 44° Northeast 446 513 45,000  Level Jacksonville Center
Mon 01:16:00 PM 32.9378 -80.6525 34° Northeast 451 519 45,000  Level Jacksonville Center
Mon 01:17:00 PM 33.0406 -80.5608 37° Northeast 457 526 45,000  Level Jacksonville Center
Mon 01:18:00 PM 33.1261 -80.4444 49° Northeast 457 526 45,000  Level Jacksonville Center
Mon 01:19:00 PM 33.2069 -80.3131 54° Northeast 476 548 45,000  Level Jacksonville Center
Mon 01:20:00 PM 33.2942 -80.1964 48° Northeast 470 541 45,000  Level Jacksonville Center
Mon 01:21:00 PM 33.3731 -80.0722 53° Northeast 465 535 45,000  Level Jacksonville Center
Mon 01:22:00 PM 33.4456 -79.9653 51° Northeast 459 528 45,000  Level Jacksonville Center
Mon 01:23:00 PM 33.5219 -79.8431 53° Northeast 454 522 45,000  Level Jacksonville Center
Mon 01:24:01 PM 33.6047 -79.7231 50° Northeast 454 522 45,000  Level Jacksonville Center
Mon 01:25:00 PM 33.6831 -79.6031 52° Northeast 454 522 45,000  Level Jacksonville Center
Mon 01:26:00 PM 33.7633 -79.4825 51° Northeast 454 522 45,000  Level Jacksonville Center
Mon 01:27:00 PM 33.8353 -79.3672 53° Northeast 446 513 45,000  Level Jacksonville Center
Mon 01:28:00 PM 33.9172 -79.2439 51° Northeast 451 519 45,000  Level Jacksonville Center
Mon 01:29:00 PM 33.9992 -79.1228 51° Northeast 456 525 45,000  Level Jacksonville Center
Mon 01:31:17 PM 34.1775 -78.8503 52° Northeast 454 522 45,000  Level Washington Center
Mon 01:32:17 PM 34.2581 -78.7278 51° Northeast 460 529 45,000 -50 Level Washington Center
Mon 01:33:16 PM 34.3486 -78.6106 47° Northeast 465 535 44,900  Descending Washington Center
Mon 01:34:17 PM 34.4472 -78.5108 40° Northeast 459 528 45,000 50 Climbing Washington Center
Mon 01:35:17 PM 34.5478 -78.4033 41° Northeast 453 521 45,000  Level Washington Center
Mon 01:36:15 PM 34.6481 -78.3108 37° Northeast 453 521 45,000 -51 Level Washington Center
Mon 01:37:15 PM 34.7483 -78.2108 39° Northeast 453 521 44,900  Descending Washington Center
Mon 01:38:15 PM 34.8531 -78.0925 43° Northeast 458 527 45,000 49 Climbing Washington Center
Mon 01:39:17 PM 34.9511 -77.9917 40° Northeast 458 527 45,000  Level Washington Center
Mon 01:40:17 PM 35.0511 -77.8881 40° Northeast 458 527 45,000  Level Washington Center
Mon 01:41:15 PM 35.1469 -77.7892 40° Northeast 458 527 45,000  Level Washington Center
Mon 01:42:16 PM 35.2469 -77.6853 40° Northeast 458 527 45,000  Level Washington Center
Mon 01:43:17 PM 35.3444 -77.5858 40° Northeast 463 533 45,000  Level Washington Center
Mon 01:44:15 PM 35.4461 -77.4914 37° Northeast 463 533 45,000  Level Washington Center
Mon 01:45:15 PM 35.5519 -77.4022 34° Northeast 458 527 45,000  Level Washington Center
Mon 01:46:16 PM 35.6556 -77.3100 36° Northeast 458 527 45,000  Level Washington Center
Mon 01:47:17 PM 35.7589 -77.2200 35° Northeast 458 527 45,000  Level Washington Center
Mon 01:48:17 PM 35.8603 -77.1272 37° Northeast 458 527 45,000  Level Washington Center
Mon 01:49:16 PM 35.9658 -77.0317 36° Northeast 453 521 45,000  Level Washington Center
Mon 01:50:16 PM 36.0714 -76.9411 35° Northeast 459 528 45,000  Level Washington Center
Mon 01:51:17 PM 36.1767 -76.8453 36° Northeast 459 528 45,000  Level Washington Center
Mon 01:52:15 PM 36.2819 -76.7542 35° Northeast 459 528 45,000  Level Washington Center
Mon 01:53:16 PM 36.3892 -76.6575 36° Northeast 459 528 45,000  Level Washington Center
Mon 01:54:17 PM 36.4942 -76.5633 36° Northeast 459 528 45,000  Level Washington Center
Mon 01:55:15 PM 36.5972 -76.4742 35° Northeast 454 522 45,000  Level Washington Center
Mon 01:56:16 PM 36.7022 -76.3769 37° Northeast 459 528 45,000  Level Washington Center
Mon 01:57:17 PM 36.7986 -76.2844 38° Northeast 464 534 45,000  Level Washington Center
Mon 01:58:15 PM 36.9014 -76.1919 36° Northeast 464 534 45,000  Level Washington Center
Mon 01:59:15 PM 37.0289 -76.1383 19° North 459 528 45,000  Level Washington Center
Mon 02:00:16 PM 37.1439 -76.0714 25° Northeast 465 535 45,000  Level Washington Center
Mon 02:01:17 PM 37.2631 -76.0094 22° Northeast 458 527 45,000  Level Washington Center
Mon 02:02:15 PM 37.3800 -75.9472 23° Northeast 458 527 45,000  Level Washington Center
Mon 02:03:15 PM 37.4969 -75.8825 24° Northeast 458 527 45,000  Level Washington Center
Mon 02:04:16 PM 37.6119 -75.8042 28° Northeast 453 521 45,000  Level Washington Center
Mon 02:05:16 PM 37.7225 -75.7231 30° Northeast 459 528 45,000  Level Washington Center
Mon 02:06:17 PM 37.8353 -75.6392 30° Northeast 459 528 45,000  Level Washington Center
Mon 02:07:15 PM 37.9458 -75.5550 31° Northeast 464 534 45,000  Level Washington Center
Mon 02:08:16 PM 38.0542 -75.4731 31° Northeast 464 534 45,000  Level Washington Center
Mon 02:09:17 PM 38.1708 -75.4017 26° Northeast 458 527 45,000  Level Washington Center
Mon 02:10:17 PM 38.2856 -75.3272 27° Northeast 452 520 45,000 -203 Level Washington Center
Mon 02:11:15 PM 38.3958 -75.2525 28° Northeast 452 520 44,600 -756 Descending Washington Center
Mon 02:12:16 PM 38.5081 -75.1778 28° Northeast 452 520 43,500 -1,033 Descending Washington Center
Mon 02:13:17 PM 38.6244 -75.1081 25° Northeast 452 520 42,500 -1,008 Descending Washington Center
Mon 02:14:15 PM 38.7431 -75.0275 28° Northeast 458 527 41,500 -1,932 Descending Washington Center
Mon 02:15:15 PM 38.8781 -74.9436 26° Northeast 463 533 38,700 -2,529 Descending Washington Center
Mon 02:16:16 PM 39.0028 -74.8625 27° Northeast 499 574 36,400 -2,311 Descending Washington Center
Mon 02:17:17 PM 39.1250 -74.7703 30° Northeast 505 581 34,000 -2,420 Descending Washington Center
Mon 02:18:15 PM 39.2367 -74.6564 38° Northeast 505 581 31,600 -2,420 Descending Washington Center
Mon 02:19:16 PM 39.3464 -74.5394 39° Northeast 505 581 29,200 -2,324 Descending Washington Center
Mon 02:20:06 PM 39.4350 -74.4481 39° Northeast 508 585 27,300 -2,411 Descending New York Center
Mon 02:21:03 PM 39.5428 -74.3350 39° Northeast 508 585 24,900 -1,678 Descending New York Center
Mon 02:22:04 PM 39.6461 -74.2272 39° Northeast 496 571 24,000 -738 Descending New York Center
Mon 02:23:05 PM 39.7472 -74.1189 39° Northeast 475 547 23,400 -545 Descending New York Center
Mon 02:24:05 PM 39.8503 -74.0100 39° Northeast 475 547 22,900 -814 Descending New York Center
Mon 02:25:03 PM 39.9392 -73.8842 47° Northeast 463 533 21,800 -1,078 Descending New York Center
Mon 02:27:31 PM 40.1683 -73.6403 39° Northeast 437 503 19,200 -1,096 Descending Boston Center
Mon 02:28:31 PM 40.2650 -73.5550 34° Northeast 424 488 18,000 -1,050 Descending Boston Center
Mon 02:29:31 PM 40.3575 -73.4694 35° Northeast 413 475 17,100 -500 Descending Boston Center
Mon 02:30:31 PM 40.4561 -73.3947 30° Northeast 401 461 17,000 -450 Descending Boston Center
Mon 02:31:31 PM 40.5528 -73.3194 31° Northeast 396 456 16,200 -1,008 Descending Boston Center
Mon 02:32:30 PM 40.6333 -73.2500 33° Northeast 324 373 15,000 -605 Descending New York TRACON
Mon 02:33:30 PM 40.7167 -73.2000 24° Northeast 308 354 15,000 -158 Level New York TRACON
Mon 02:34:24 PM 40.7833 -73.1500 30° Northeast 279 321 14,700 -1,158 Descending New York TRACON
Mon 02:35:24 PM 40.8500 -73.0833 37° Northeast 322 371 12,800 -1,857 Descending New York TRACON
Mon 02:36:30 PM 40.9333 -73.0167 31° Northeast 318 366 10,800 -1,619 Descending New York TRACON
Mon 02:37:30 PM 41.0167 -73.0333 351° North 296 341 9,400 -1,500 Descending New York TRACON
Mon 02:38:30 PM 41.0667 -73.1167 309° West 272 313 7,800 -1,750 Descending New York TRACON
Mon 02:39:30 PM 41.0833 -73.2000 285° West 262 302 5,900 -1,850 Descending New York TRACON
Mon 02:40:30 PM 41.1167 -73.2833 298° West 251 289 4,100 -900 Descending New York TRACON
Mon 02:41:30 PM 41.1500 -73.3833 294° West 258 297 4,100 -650 Level New York TRACON
Mon 02:42:30 PM 41.1667 -73.4667 285° West 261 300 2,800 -1,050 Descending New York TRACON
Mon 02:43:30 PM 41.1167 -73.5000 207° Southwest 261 300 2,000 -400 Descending New York TRACON
Mon 02:44:30 PM 41.0500 -73.5167 191° South 267 307 2,000  Level New York TRACON
Mon 02:45:30 PM 40.9833 -73.5167 180° South 215 247 2,000  Level New York TRACON
Mon 02:46:30 PM 40.9667 -73.5833 252° West 178 205 2,000  Level New York TRACON
Mon 02:47:36 PM 40.9833 -73.6333 294° West 172 198 2,000 -286 Level New York TRACON
Mon 02:48:36 PM 41.0167 -73.6667 323° Northwest 147 169 1,400 -650 Descending New York TRACON
Mon 02:49:36 PM 41.0500 -73.6833 339° North 128 147 700 -700 Descending New York TRACON
Mon 02:51:00 PM 41.0667 -73.7000 329° Northwest  Level FlightAware Approximate

Login

Don't have an account? Register now (free) for customized features, flight alerts, and more!